Franconia, New Hampshire
Current Conditions -  °F | °C
As of 7:52 AM on Friday 19 Dec 2014 (Local Time) from KHIE Reporting Station
Overcast Overcast  
Wind Chill: 21°   Ceiling: 1700
Heat Index: 26°   Visibility: 10mi
Dew Point: 21°   Wind: 5mph
Humidity: 81%   Direction: 310°NW
Pressure: 29.92"   Gusts: NA
Location:  44.23°N, 71.75°W
Report Text: KHIE 191252Z AUTO 31004KT 10SM OVC017 M03/M06 A2992 RMK AO2 SLP149 T10331061
Loading
Personal Weather Stations






























Interactive Weather Map New forecast layout! Learn more

10-Day Weather Forecast

Advertisements
Track Severe Weather on mobile